createdAt,value
2019-06-26T00:00:03.444Z,26.65
2019-06-26T00:00:40.533Z,26.63
2019-06-26T00:01:17.486Z,26.61
2019-06-26T00:01:53.633Z,26.59
2019-06-26T00:02:30.619Z,26.55
2019-06-26T00:03:07.582Z,26.55
2019-06-26T00:03:43.607Z,26.51
2019-06-26T00:04:20.699Z,26.50
2019-06-26T00:04:57.688Z,26.48
2019-06-26T00:05:34.291Z,26.42
2019-06-26T00:06:10.943Z,26.38
2019-06-26T00:06:48.000Z,26.29
2019-06-26T00:07:24.455Z,26.33
2019-06-26T00:08:01.686Z,26.37
2019-06-26T00:08:38.494Z,26.49
2019-06-26T00:09:14.525Z,26.44
2019-06-26T00:09:52.208Z,26.41
2019-06-26T00:10:29.319Z,26.29
2019-06-26T00:11:05.640Z,26.24
2019-06-26T00:11:42.591Z,26.23
2019-06-26T00:12:19.871Z,26.31
2019-06-26T00:12:56.245Z,26.40
2019-06-26T00:13:32.867Z,26.37
2019-06-26T00:14:09.584Z,26.32
2019-06-26T00:14:46.047Z,26.23
2019-06-26T00:15:22.978Z,26.17
2019-06-26T00:16:00.029Z,26.16
2019-06-26T00:16:36.667Z,26.15
2019-06-26T00:17:14.046Z,26.15
2019-06-26T00:17:50.697Z,26.09
2019-06-26T00:18:26.737Z,26.06
2019-06-26T00:19:03.367Z,26.04
2019-06-26T00:19:40.931Z,26.03
2019-06-26T00:20:17.655Z,26.01
2019-06-26T00:20:54.681Z,26.05
2019-06-26T00:21:31.701Z,26.03
2019-06-26T00:22:07.998Z,25.99
2019-06-26T00:22:44.977Z,26.06
2019-06-26T00:23:21.598Z,26.10
2019-06-26T00:23:58.457Z,26.06
2019-06-26T00:24:35.078Z,26.03
2019-06-26T00:25:11.884Z,25.98
2019-06-26T00:25:48.023Z,25.94
2019-06-26T00:26:25.695Z,25.92
2019-06-26T00:27:03.066Z,25.95
2019-06-26T00:27:39.726Z,25.97
2019-06-26T00:28:17.080Z,25.96
2019-06-26T00:28:53.797Z,25.92
2019-06-26T00:29:29.905Z,25.94
2019-06-26T00:30:08.065Z,26.02
2019-06-26T00:30:44.870Z,26.14
2019-06-26T00:31:20.927Z,26.06
2019-06-26T00:31:57.542Z,26.08
2019-06-26T00:32:34.789Z,26.04
2019-06-26T00:33:10.828Z,26.05
2019-06-26T00:33:47.471Z,26.02
2019-06-26T00:34:24.842Z,25.98
2019-06-26T00:35:00.959Z,25.96
2019-06-26T00:35:37.691Z,25.99
2019-06-26T00:36:14.792Z,25.97
2019-06-26T00:36:50.860Z,26.05
2019-06-26T00:37:27.877Z,26.09
2019-06-26T00:38:04.564Z,26.02
2019-06-26T00:38:40.601Z,25.98
2019-06-26T00:39:17.564Z,25.96
2019-06-26T00:39:54.738Z,25.96
2019-06-26T00:40:31.275Z,25.94
2019-06-26T00:41:07.944Z,26.00
2019-06-26T00:41:45.033Z,25.98
2019-06-26T00:42:21.358Z,25.94
2019-06-26T00:42:58.379Z,25.93
2019-06-26T00:43:42.404Z,25.96
2019-06-26T00:44:13.881Z,25.96
2019-06-26T00:44:50.768Z,25.93
2019-06-26T00:45:27.392Z,25.93
2019-06-26T00:46:03.755Z,25.92
2019-06-26T00:46:40.870Z,25.92
2019-06-26T00:47:17.468Z,25.92
2019-06-26T00:47:53.506Z,25.91
2019-06-26T00:48:30.119Z,25.90
2019-06-26T00:49:06.789Z,25.90
2019-06-26T00:49:42.813Z,25.90
2019-06-26T00:50:19.773Z,25.89
2019-06-26T00:50:56.495Z,25.89
2019-06-26T00:51:32.655Z,25.89
2019-06-26T00:52:09.414Z,25.93
2019-06-26T00:52:46.032Z,25.97
2019-06-26T00:53:22.478Z,25.94
2019-06-26T00:53:59.441Z,25.93
2019-06-26T00:54:36.066Z,25.92
2019-06-26T00:55:12.651Z,25.92
2019-06-26T00:55:49.268Z,25.92
2019-06-26T00:56:26.780Z,25.92
2019-06-26T00:57:03.054Z,25.93
2019-06-26T00:57:39.674Z,25.90
2019-06-26T00:58:16.901Z,25.95
2019-06-26T00:58:53.192Z,25.96
2019-06-26T00:59:30.406Z,25.96
2019-06-26T01:00:10.262Z,25.91
2019-06-26T01:00:50.388Z,25.88
2019-06-26T01:01:27.023Z,25.89
2019-06-26T01:02:04.272Z,25.87
2019-06-26T01:02:40.305Z,25.88
2019-06-26T01:03:17.217Z,25.88
2019-06-26T01:03:55.408Z,25.84
2019-06-26T01:04:35.594Z,25.83
2019-06-26T01:05:12.899Z,25.80
2019-06-26T01:05:49.939Z,25.82
2019-06-26T01:06:44.884Z,25.84
2019-06-26T01:07:21.888Z,25.91
2019-06-26T01:07:58.474Z,25.84
2019-06-26T01:08:35.240Z,25.85
2019-06-26T01:09:11.895Z,25.80
2019-06-26T01:09:48.936Z,25.79
2019-06-26T01:10:25.118Z,25.74
2019-06-26T01:11:02.078Z,25.72
2019-06-26T01:11:39.009Z,25.70
2019-06-26T01:12:15.395Z,25.80
2019-06-26T01:12:52.128Z,25.77
2019-06-26T01:13:29.211Z,25.76
2019-06-26T01:14:05.792Z,25.71
2019-06-26T01:14:42.411Z,25.67
2019-06-26T01:15:19.243Z,25.67
2019-06-26T01:15:55.272Z,25.70
2019-06-26T01:16:32.484Z,25.65
2019-06-26T01:17:09.293Z,25.67
2019-06-26T01:17:45.357Z,25.82
2019-06-26T01:18:22.840Z,25.77
2019-06-26T01:18:59.801Z,25.71
2019-06-26T01:19:37.117Z,25.72
2019-06-26T01:20:14.043Z,25.70
2019-06-26T01:20:50.707Z,25.70
2019-06-26T01:21:27.486Z,25.66
2019-06-26T01:22:04.556Z,25.64
2019-06-26T01:22:41.525Z,25.64
2019-06-26T01:23:17.682Z,25.62
2019-06-26T01:23:54.297Z,25.71
2019-06-26T01:24:31.392Z,25.71
2019-06-26T01:25:07.485Z,25.66
2019-06-26T01:25:44.288Z,25.72
2019-06-26T01:26:21.304Z,25.67
2019-06-26T01:26:57.367Z,25.62
2019-06-26T01:27:34.025Z,25.63
2019-06-26T01:28:11.069Z,25.60
2019-06-26T01:28:47.612Z,25.55
2019-06-26T01:29:24.323Z,25.55
2019-06-26T01:30:01.363Z,25.50
2019-06-26T01:30:37.878Z,25.47
2019-06-26T01:31:14.855Z,25.44
2019-06-26T01:31:51.511Z,25.51
2019-06-26T01:32:28.306Z,25.48
2019-06-26T01:33:05.014Z,25.43
2019-06-26T01:33:41.980Z,25.41
2019-06-26T01:34:18.382Z,25.41
2019-06-26T01:34:55.696Z,25.38
2019-06-26T01:35:33.059Z,25.34
2019-06-26T01:36:09.153Z,25.35
2019-06-26T01:36:45.812Z,25.34
2019-06-26T01:37:23.474Z,25.33
2019-06-26T01:37:59.979Z,25.32
2019-06-26T01:38:36.704Z,25.33
2019-06-26T01:39:13.377Z,25.31
2019-06-26T01:39:49.421Z,25.30
2019-06-26T01:40:26.059Z,25.30
2019-06-26T01:41:03.608Z,25.27
2019-06-26T01:41:40.407Z,25.30
2019-06-26T01:42:17.035Z,25.30
2019-06-26T01:42:53.722Z,25.32
2019-06-26T01:43:30.902Z,25.30
2019-06-26T01:44:14.605Z,25.30
2019-06-26T01:44:46.577Z,25.32
2019-06-26T01:45:23.111Z,25.34
2019-06-26T01:45:59.746Z,25.35
2019-06-26T01:46:36.401Z,25.39
2019-06-26T01:47:12.486Z,25.44
2019-06-26T01:47:49.116Z,25.42
2019-06-26T01:48:26.260Z,25.42
2019-06-26T01:49:02.668Z,25.40
2019-06-26T01:49:39.590Z,25.42
2019-06-26T01:50:16.238Z,25.38
2019-06-26T01:50:52.287Z,25.32
2019-06-26T01:51:29.070Z,25.29
2019-06-26T01:52:05.929Z,25.27
2019-06-26T01:52:41.982Z,25.25
2019-06-26T01:53:19.040Z,25.16
2019-06-26T01:53:56.442Z,25.18
2019-06-26T01:54:32.520Z,25.17
2019-06-26T01:55:09.758Z,25.14
2019-06-26T01:55:46.387Z,25.13
2019-06-26T01:56:22.763Z,25.18
2019-06-26T01:56:59.419Z,25.22
2019-06-26T01:57:36.459Z,25.22
2019-06-26T01:58:12.788Z,25.17
2019-06-26T01:58:49.448Z,25.17
2019-06-26T01:59:26.436Z,25.15
2019-06-26T02:00:02.594Z,25.25
2019-06-26T02:00:39.410Z,25.16
2019-06-26T02:01:16.068Z,25.15
2019-06-26T02:01:52.167Z,25.12
2019-06-26T02:02:28.822Z,25.10
2019-06-26T02:03:05.501Z,25.09
2019-06-26T02:03:41.604Z,25.07
2019-06-26T02:04:18.556Z,25.17
2019-06-26T02:04:55.263Z,25.14
2019-06-26T02:05:31.390Z,25.13
2019-06-26T02:06:08.059Z,25.08
2019-06-26T02:06:45.543Z,25.03
2019-06-26T02:07:21.584Z,25.00
2019-06-26T02:07:58.321Z,24.96
2019-06-26T02:08:34.953Z,24.98
2019-06-26T02:09:11.357Z,24.98
2019-06-26T02:09:47.976Z,24.95
2019-06-26T02:10:24.880Z,24.95
2019-06-26T02:11:00.946Z,24.95
2019-06-26T02:11:38.303Z,24.93
2019-06-26T02:12:15.272Z,24.92
2019-06-26T02:12:51.309Z,24.90
2019-06-26T02:13:27.937Z,24.93
2019-06-26T02:14:05.074Z,24.90
2019-06-26T02:14:41.958Z,24.87
2019-06-26T02:15:18.869Z,24.89
2019-06-26T02:15:55.492Z,24.86
2019-06-26T02:16:31.512Z,24.89
2019-06-26T02:17:08.282Z,24.88
2019-06-26T02:17:45.643Z,24.88
2019-06-26T02:18:47.524Z,24.89
2019-06-26T02:19:24.565Z,24.87
2019-06-26T02:20:02.000Z,24.89
2019-06-26T02:20:38.044Z,24.92
2019-06-26T02:21:15.422Z,24.90
2019-06-26T02:21:52.009Z,24.91
2019-06-26T02:22:28.436Z,24.93
2019-06-26T02:23:05.511Z,24.93
2019-06-26T02:23:42.436Z,24.95
2019-06-26T02:24:18.497Z,24.95
2019-06-26T02:24:55.100Z,24.95
2019-06-26T02:25:32.134Z,24.94
2019-06-26T02:26:08.167Z,24.91
2019-06-26T02:26:45.174Z,24.91
2019-06-26T02:27:22.110Z,24.93
2019-06-26T02:27:58.133Z,24.91
2019-06-26T02:28:34.766Z,24.96
2019-06-26T02:29:11.701Z,24.93
2019-06-26T02:29:47.792Z,24.93
2019-06-26T02:30:24.402Z,24.90
2019-06-26T02:31:01.023Z,24.88
2019-06-26T02:31:37.350Z,24.85
2019-06-26T02:32:13.983Z,24.87
2019-06-26T02:32:50.607Z,24.86
2019-06-26T02:33:26.738Z,24.85
2019-06-26T02:34:03.862Z,24.83
2019-06-26T02:34:40.573Z,24.85
2019-06-26T02:35:17.003Z,24.88
2019-06-26T02:35:53.618Z,24.90
2019-06-26T02:36:30.860Z,24.88
2019-06-26T02:37:07.261Z,24.88
2019-06-26T02:37:43.907Z,24.86
2019-06-26T02:38:20.526Z,24.86
2019-06-26T02:38:56.562Z,24.90
2019-06-26T02:39:33.182Z,24.98
2019-06-26T02:40:11.076Z,25.10
2019-06-26T02:40:47.126Z,25.07
2019-06-26T02:41:24.049Z,25.06
2019-06-26T02:42:00.726Z,25.02
2019-06-26T02:42:36.902Z,24.99
2019-06-26T02:43:14.322Z,24.99
2019-06-26T02:43:51.149Z,24.99
2019-06-26T02:44:27.213Z,25.04
2019-06-26T02:45:04.410Z,25.04
2019-06-26T02:45:41.490Z,25.05
2019-06-26T02:46:17.637Z,25.06
2019-06-26T02:46:54.651Z,25.01
2019-06-26T02:47:31.305Z,24.99
2019-06-26T02:48:07.383Z,25.02
2019-06-26T02:48:44.403Z,25.01
2019-06-26T02:49:21.064Z,24.98
2019-06-26T02:49:57.231Z,25.08
2019-06-26T02:50:33.997Z,25.03
2019-06-26T02:51:10.662Z,25.01
2019-06-26T02:51:47.216Z,25.10
2019-06-26T02:52:23.911Z,25.05
2019-06-26T02:53:00.544Z,25.03
2019-06-26T02:53:36.637Z,25.01
2019-06-26T02:54:13.279Z,25.02
2019-06-26T02:54:50.597Z,25.02
2019-06-26T02:55:27.090Z,25.00
2019-06-26T02:56:03.825Z,24.96
2019-06-26T02:56:40.783Z,24.96
2019-06-26T02:57:17.138Z,24.97
2019-06-26T02:57:53.807Z,25.08
2019-06-26T02:58:30.454Z,25.05
2019-06-26T02:59:07.018Z,25.08
2019-06-26T02:59:43.689Z,25.04
2019-06-26T03:00:20.790Z,25.00
2019-06-26T03:00:57.225Z,25.00
2019-06-26T03:01:34.186Z,24.99
2019-06-26T03:02:10.888Z,24.99
2019-06-26T03:02:46.961Z,24.94
2019-06-26T03:03:23.603Z,24.93
2019-06-26T03:04:00.651Z,24.94
2019-06-26T03:04:37.021Z,24.90
2019-06-26T03:05:13.653Z,24.95
2019-06-26T03:05:50.310Z,24.96
2019-06-26T03:06:26.612Z,24.95
2019-06-26T03:07:03.681Z,24.91
2019-06-26T03:07:40.361Z,24.87
2019-06-26T03:08:16.488Z,24.85
2019-06-26T03:08:53.138Z,24.84
2019-06-26T03:09:29.798Z,24.83
2019-06-26T03:10:07.011Z,24.80
2019-06-26T03:10:43.659Z,24.79
2019-06-26T03:11:20.761Z,24.78
2019-06-26T03:11:56.811Z,24.77
2019-06-26T03:12:33.820Z,24.79
2019-06-26T03:13:10.904Z,24.82
2019-06-26T03:13:47.220Z,24.83
2019-06-26T03:14:23.942Z,24.81
2019-06-26T03:15:08.986Z,24.81
2019-06-26T03:15:38.960Z,24.84
2019-06-26T03:16:15.619Z,24.84
2019-06-26T03:16:53.071Z,24.89
2019-06-26T03:17:29.152Z,24.89
2019-06-26T03:18:06.036Z,24.88
2019-06-26T03:18:42.687Z,24.85
2019-06-26T03:19:19.041Z,24.82
2019-06-26T03:19:55.700Z,24.80
2019-06-26T03:20:35.447Z,24.78
2019-06-26T03:21:12.505Z,24.75
2019-06-26T03:21:49.522Z,24.72
2019-06-26T03:22:26.864Z,24.69
2019-06-26T03:23:02.929Z,24.68
2019-06-26T03:23:39.591Z,24.70
2019-06-26T03:24:16.235Z,24.68
2019-06-26T03:24:52.335Z,24.70
2019-06-26T03:25:29.073Z,24.73
2019-06-26T03:26:06.223Z,24.73
2019-06-26T03:26:42.321Z,24.68
2019-06-26T03:27:19.351Z,24.71
2019-06-26T03:27:56.247Z,24.74
2019-06-26T03:28:33.435Z,24.72
2019-06-26T03:29:10.102Z,24.77
2019-06-26T03:29:46.873Z,24.79
2019-06-26T03:30:23.417Z,24.81
2019-06-26T03:31:00.462Z,24.80
2019-06-26T03:31:37.133Z,24.73
2019-06-26T03:32:13.320Z,24.69
2019-06-26T03:32:49.955Z,24.66
2019-06-26T03:33:26.594Z,24.62
2019-06-26T03:34:02.679Z,24.58
2019-06-26T03:34:39.324Z,24.54
2019-06-26T03:35:16.296Z,24.56
2019-06-26T03:35:52.436Z,24.54
2019-06-26T03:36:29.083Z,24.54
2019-06-26T03:37:05.801Z,24.53
2019-06-26T03:37:42.415Z,24.53
2019-06-26T03:38:19.144Z,24.53
2019-06-26T03:38:55.895Z,24.52
2019-06-26T03:39:32.617Z,24.51
2019-06-26T03:40:10.016Z,24.50
2019-06-26T03:40:46.938Z,24.68
2019-06-26T03:41:23.716Z,24.74
2019-06-26T03:42:00.771Z,24.70
2019-06-26T03:42:37.747Z,24.62
2019-06-26T03:43:13.948Z,24.68
2019-06-26T03:43:50.590Z,24.73
2019-06-26T03:44:27.235Z,24.85
2019-06-26T03:45:03.352Z,24.74
2019-06-26T03:45:40.352Z,24.71
2019-06-26T03:46:16.983Z,24.69
2019-06-26T03:46:53.148Z,24.64
2019-06-26T03:47:30.124Z,24.67
2019-06-26T03:48:06.788Z,24.61
2019-06-26T03:48:43.197Z,24.55
2019-06-26T03:49:20.237Z,24.49
2019-06-26T03:49:56.909Z,24.48
2019-06-26T03:50:32.998Z,24.46
2019-06-26T03:51:13.747Z,24.46
2019-06-26T03:51:48.938Z,24.41
2019-06-26T03:52:25.043Z,24.52
2019-06-26T03:53:02.376Z,24.44
2019-06-26T03:53:39.164Z,24.51
2019-06-26T03:54:15.220Z,24.74
2019-06-26T03:54:52.071Z,24.60
2019-06-26T03:55:28.709Z,24.51
2019-06-26T03:56:05.352Z,24.43
2019-06-26T03:56:42.317Z,24.38
2019-06-26T03:57:19.697Z,24.35
2019-06-26T03:57:56.291Z,24.35
2019-06-26T03:58:33.577Z,24.28
2019-06-26T03:59:10.250Z,24.29
2019-06-26T03:59:46.306Z,24.27
2019-06-26T04:00:31.798Z,24.28
2019-06-26T04:01:08.862Z,24.24
2019-06-26T04:01:44.923Z,24.28
2019-06-26T04:02:22.318Z,24.30
2019-06-26T04:02:59.433Z,24.26
2019-06-26T04:03:35.507Z,24.30
2019-06-26T04:04:12.205Z,24.26
2019-06-26T04:04:49.793Z,24.23
2019-06-26T04:05:25.885Z,24.22
2019-06-26T04:06:02.913Z,24.25
2019-06-26T04:06:39.573Z,24.26
2019-06-26T04:07:15.621Z,24.26
2019-06-26T04:07:53.109Z,24.26
2019-06-26T04:08:29.811Z,24.26
2019-06-26T04:09:07.284Z,24.30
2019-06-26T04:09:44.643Z,24.25
2019-06-26T04:10:21.260Z,24.26
2019-06-26T04:10:57.341Z,24.30
2019-06-26T04:11:33.979Z,24.31
2019-06-26T04:12:10.644Z,24.27
2019-06-26T04:12:47.097Z,24.24
2019-06-26T04:13:23.737Z,24.25
2019-06-26T04:14:00.678Z,24.28
2019-06-26T04:14:37.083Z,24.31
2019-06-26T04:15:14.201Z,24.32
2019-06-26T04:15:51.175Z,24.34
2019-06-26T04:16:27.750Z,24.37
2019-06-26T04:17:04.419Z,24.39
2019-06-26T04:17:41.058Z,24.40
2019-06-26T04:18:17.425Z,24.42
2019-06-26T04:18:54.065Z,24.43
2019-06-26T04:19:30.743Z,24.45
2019-06-26T04:20:07.021Z,24.47
2019-06-26T04:20:43.632Z,24.47
2019-06-26T04:21:20.272Z,24.46
2019-06-26T04:21:56.323Z,24.45
2019-06-26T04:22:33.216Z,24.42
2019-06-26T04:23:09.816Z,24.43
2019-06-26T04:23:46.640Z,24.46
2019-06-26T04:24:23.274Z,24.49
2019-06-26T04:25:00.282Z,24.47
2019-06-26T04:25:38.275Z,24.53
2019-06-26T04:26:14.813Z,24.53
2019-06-26T04:26:51.792Z,24.55
2019-06-26T04:27:28.100Z,24.57
2019-06-26T04:28:06.427Z,24.57
2019-06-26T04:28:44.058Z,24.63
2019-06-26T04:29:20.390Z,24.77
2019-06-26T04:29:57.151Z,24.74
2019-06-26T04:30:33.778Z,24.75
2019-06-26T04:31:09.877Z,24.74
2019-06-26T04:31:46.499Z,24.75
2019-06-26T04:32:23.500Z,24.75
2019-06-26T04:32:59.928Z,24.70
2019-06-26T04:33:36.844Z,24.72
2019-06-26T04:34:13.477Z,24.72
2019-06-26T04:34:49.531Z,24.80
2019-06-26T04:35:26.617Z,24.75
2019-06-26T04:36:03.289Z,24.73
2019-06-26T04:36:39.328Z,24.75
2019-06-26T04:37:15.935Z,24.69
2019-06-26T04:37:52.673Z,24.74
2019-06-26T04:38:29.031Z,24.93
2019-06-26T04:39:07.397Z,25.01
2019-06-26T04:39:44.006Z,24.93
2019-06-26T04:40:20.779Z,24.86
2019-06-26T04:40:58.006Z,24.80
2019-06-26T04:41:34.664Z,24.80
2019-06-26T04:42:10.726Z,24.81
2019-06-26T04:42:47.790Z,24.82
2019-06-26T04:43:24.433Z,24.79
2019-06-26T04:44:00.552Z,24.81
2019-06-26T04:44:37.466Z,24.85
2019-06-26T04:45:15.504Z,24.86
2019-06-26T04:45:58.097Z,24.88
2019-06-26T04:46:29.907Z,24.99
2019-06-26T04:47:06.882Z,25.17
2019-06-26T04:47:42.962Z,25.12
2019-06-26T04:48:20.010Z,25.08
2019-06-26T04:48:56.645Z,25.15
2019-06-26T04:49:33.031Z,25.16
2019-06-26T04:50:11.290Z,25.17
2019-06-26T04:50:48.604Z,25.20
2019-06-26T04:51:24.644Z,25.17
2019-06-26T04:52:01.293Z,25.15
2019-06-26T04:52:38.406Z,25.20
2019-06-26T04:53:14.460Z,25.13
2019-06-26T04:53:51.105Z,25.11
2019-06-26T04:54:27.824Z,25.13
2019-06-26T04:55:04.053Z,25.17
2019-06-26T04:55:41.025Z,25.14
2019-06-26T04:56:17.666Z,25.11
2019-06-26T04:56:53.898Z,25.12
2019-06-26T04:57:30.576Z,25.23
2019-06-26T04:58:07.288Z,25.33
2019-06-26T04:58:43.316Z,25.28
2019-06-26T04:59:19.972Z,25.38
2019-06-26T04:59:56.597Z,25.30
2019-06-26T05:00:32.643Z,25.30
2019-06-26T05:01:10.070Z,25.38
2019-06-26T05:01:46.828Z,25.25
2019-06-26T05:02:22.963Z,25.18
2019-06-26T05:02:59.913Z,25.14
2019-06-26T05:03:36.577Z,25.16
2019-06-26T05:04:12.647Z,25.20
2019-06-26T05:04:49.285Z,25.23
2019-06-26T05:05:38.908Z,25.26
2019-06-26T05:06:03.814Z,25.30
2019-06-26T05:06:40.538Z,25.33
2019-06-26T05:07:17.464Z,25.33
2019-06-26T05:07:53.850Z,25.33
2019-06-26T05:08:30.920Z,25.34
2019-06-26T05:09:08.763Z,25.39
2019-06-26T05:09:45.094Z,25.48
2019-06-26T05:10:22.202Z,25.49
2019-06-26T05:10:58.838Z,25.56
2019-06-26T05:11:35.025Z,25.67
2019-06-26T05:12:11.647Z,25.73
2019-06-26T05:12:48.595Z,25.70
2019-06-26T05:13:25.015Z,25.73
2019-06-26T05:14:01.671Z,25.67
2019-06-26T05:14:38.846Z,25.64
2019-06-26T05:15:15.194Z,25.61
2019-06-26T05:15:52.229Z,25.62
2019-06-26T05:16:29.159Z,25.70
2019-06-26T05:17:05.502Z,25.74
2019-06-26T05:17:42.157Z,25.80
2019-06-26T05:18:18.806Z,25.92
2019-06-26T05:18:55.281Z,25.81
2019-06-26T05:19:32.288Z,25.78
2019-06-26T05:20:10.746Z,25.82
2019-06-26T05:20:47.248Z,25.85
2019-06-26T05:21:24.699Z,25.88
2019-06-26T05:22:01.377Z,25.89
2019-06-26T05:22:37.424Z,25.86
2019-06-26T05:23:14.082Z,25.82
2019-06-26T05:23:51.092Z,25.79
2019-06-26T05:24:28.028Z,25.85
2019-06-26T05:25:04.983Z,25.87
2019-06-26T05:25:42.089Z,25.92
2019-06-26T05:26:18.188Z,25.95
2019-06-26T05:26:54.804Z,25.94
2019-06-26T05:27:31.453Z,25.95
2019-06-26T05:28:08.563Z,25.99
2019-06-26T05:28:45.404Z,26.02
2019-06-26T05:29:22.164Z,26.16
2019-06-26T05:29:58.658Z,26.23
2019-06-26T05:30:36.081Z,26.20
2019-06-26T05:31:12.827Z,26.32
2019-06-26T05:31:49.192Z,26.28
2019-06-26T05:32:25.892Z,26.20
2019-06-26T05:33:03.048Z,26.26
2019-06-26T05:33:39.556Z,26.30
2019-06-26T05:34:16.285Z,26.22
2019-06-26T05:34:53.361Z,26.15
2019-06-26T05:35:29.843Z,26.19
2019-06-26T05:36:06.804Z,26.23
2019-06-26T05:36:43.421Z,26.19
2019-06-26T05:37:19.515Z,26.18
2019-06-26T05:37:56.533Z,26.20
2019-06-26T05:38:33.221Z,26.27
2019-06-26T05:39:09.299Z,26.21
2019-06-26T05:39:45.928Z,26.20
2019-06-26T05:40:22.685Z,26.21
2019-06-26T05:40:58.778Z,26.08
2019-06-26T05:41:35.430Z,26.12
2019-06-26T05:42:12.271Z,26.08
2019-06-26T05:42:48.775Z,26.01
2019-06-26T05:43:25.446Z,26.06
2019-06-26T05:44:02.548Z,26.07
2019-06-26T05:44:38.964Z,26.05
2019-06-26T05:45:16.186Z,26.02
2019-06-26T05:45:52.913Z,26.11
2019-06-26T05:46:31.382Z,26.05
2019-06-26T05:47:08.436Z,25.93
2019-06-26T05:47:45.406Z,25.89
2019-06-26T05:48:21.756Z,25.83
2019-06-26T05:48:58.370Z,25.73
2019-06-26T05:49:35.059Z,25.70
2019-06-26T05:50:11.871Z,25.71
2019-06-26T05:50:48.684Z,25.77
2019-06-26T05:51:25.315Z,25.83
2019-06-26T05:52:02.286Z,25.96
2019-06-26T05:52:42.218Z,26.08
2019-06-26T05:53:17.738Z,26.01
2019-06-26T05:53:53.905Z,25.91
2019-06-26T05:54:30.510Z,25.91
2019-06-26T05:55:07.770Z,25.90
2019-06-26T05:55:43.848Z,25.89
2019-06-26T05:56:20.513Z,25.96
2019-06-26T05:56:57.141Z,26.06
2019-06-26T05:57:33.596Z,26.17
2019-06-26T05:58:10.607Z,26.18
2019-06-26T05:58:47.334Z,26.26
2019-06-26T05:59:23.348Z,26.32
2019-06-26T06:00:00.370Z,26.43
2019-06-26T06:00:37.310Z,26.34
2019-06-26T06:01:13.310Z,26.36
2019-06-26T06:01:49.976Z,26.42
2019-06-26T06:02:26.639Z,26.40
2019-06-26T06:03:03.000Z,26.56
2019-06-26T06:03:39.604Z,26.51
2019-06-26T06:04:16.802Z,26.43
2019-06-26T06:04:53.226Z,26.40
2019-06-26T06:05:30.233Z,26.26
2019-06-26T06:06:07.041Z,26.23
2019-06-26T06:06:43.072Z,26.26
2019-06-26T06:07:20.482Z,26.27
2019-06-26T06:07:57.823Z,26.27
2019-06-26T06:08:33.905Z,26.28
2019-06-26T06:09:10.525Z,26.24
2019-06-26T06:09:47.393Z,26.35
2019-06-26T06:10:23.676Z,26.32
2019-06-26T06:11:00.855Z,26.35
2019-06-26T06:11:37.915Z,26.30
2019-06-26T06:12:14.189Z,26.39
2019-06-26T06:12:50.859Z,26.36
2019-06-26T06:13:27.496Z,26.38
2019-06-26T06:14:03.811Z,26.40
2019-06-26T06:14:40.462Z,26.44
2019-06-26T06:15:17.685Z,26.50
2019-06-26T06:15:54.271Z,26.57
2019-06-26T06:16:45.941Z,26.62
2019-06-26T06:17:09.377Z,26.61
2019-06-26T06:17:45.429Z,26.60
2019-06-26T06:18:22.049Z,26.65
2019-06-26T06:18:58.678Z,26.65
2019-06-26T06:19:34.749Z,26.78
2019-06-26T06:20:12.477Z,26.80
2019-06-26T06:20:49.374Z,26.91
2019-06-26T06:21:25.426Z,26.97
2019-06-26T06:22:02.087Z,26.91
2019-06-26T06:22:38.752Z,27.06
2019-06-26T06:23:14.860Z,26.92
2019-06-26T06:23:51.561Z,26.98
2019-06-26T06:24:28.192Z,27.07
2019-06-26T06:25:04.452Z,26.93
2019-06-26T06:25:41.436Z,26.83
2019-06-26T06:26:18.086Z,26.76
2019-06-26T06:26:54.195Z,26.67
2019-06-26T06:27:30.856Z,26.74
2019-06-26T06:28:07.514Z,26.83
2019-06-26T06:28:43.508Z,26.97
2019-06-26T06:29:20.107Z,27.02
2019-06-26T06:29:56.744Z,26.98
2019-06-26T06:30:32.771Z,27.05
2019-06-26T06:31:09.418Z,27.01
2019-06-26T06:31:46.000Z,26.98
2019-06-26T06:32:22.669Z,27.12
2019-06-26T06:32:59.356Z,27.25
2019-06-26T06:33:35.981Z,27.37
2019-06-26T06:34:12.776Z,27.19
2019-06-26T06:34:49.389Z,27.22
2019-06-26T06:35:26.090Z,27.36
2019-06-26T06:36:02.483Z,27.49
2019-06-26T06:36:39.513Z,27.62
2019-06-26T06:37:16.253Z,27.53
2019-06-26T06:37:53.232Z,27.49
2019-06-26T06:38:29.826Z,27.55
2019-06-26T06:39:08.005Z,27.46
2019-06-26T06:39:44.058Z,27.36
2019-06-26T06:40:20.632Z,27.49
2019-06-26T06:40:57.226Z,27.52
2019-06-26T06:41:33.235Z,27.55
2019-06-26T06:42:09.831Z,27.51
2019-06-26T06:42:46.455Z,27.60
2019-06-26T06:43:22.468Z,27.52
2019-06-26T06:43:59.649Z,27.62
2019-06-26T06:44:36.309Z,27.74
2019-06-26T06:45:12.613Z,27.68
2019-06-26T06:45:50.090Z,27.53
2019-06-26T06:46:27.058Z,27.50
2019-06-26T06:47:04.545Z,27.54
2019-06-26T06:47:42.037Z,27.51
2019-06-26T06:48:18.650Z,27.48
2019-06-26T06:48:54.650Z,27.52
2019-06-26T06:49:31.243Z,27.61
2019-06-26T06:50:08.039Z,27.69
2019-06-26T06:50:44.052Z,27.78
2019-06-26T06:51:20.795Z,27.81
2019-06-26T06:51:57.416Z,27.79
2019-06-26T06:52:33.901Z,27.90
2019-06-26T06:53:11.472Z,28.09
2019-06-26T06:53:48.448Z,28.09
2019-06-26T06:54:25.529Z,28.11
2019-06-26T06:55:02.174Z,28.06
2019-06-26T06:55:38.852Z,27.98
2019-06-26T06:56:15.508Z,27.87
2019-06-26T06:56:52.299Z,27.89
2019-06-26T06:57:29.337Z,27.93
2019-06-26T06:58:05.483Z,27.89
2019-06-26T06:58:42.655Z,27.89
2019-06-26T06:59:19.656Z,27.93
2019-06-26T06:59:55.706Z,27.95
2019-06-26T07:00:33.735Z,28.03
2019-06-26T07:01:10.473Z,28.07
2019-06-26T07:01:46.481Z,28.19
2019-06-26T07:02:23.762Z,28.32
2019-06-26T07:03:00.567Z,28.19
2019-06-26T07:03:36.674Z,28.10
2019-06-26T07:04:13.392Z,28.07
2019-06-26T07:04:50.022Z,28.18
2019-06-26T07:05:26.087Z,28.23
2019-06-26T07:06:02.696Z,28.13
2019-06-26T07:06:39.340Z,28.05
2019-06-26T07:07:15.496Z,28.11
2019-06-26T07:07:52.493Z,28.13
2019-06-26T07:08:29.122Z,28.16
2019-06-26T07:09:06.841Z,28.20
2019-06-26T07:09:43.445Z,28.27
2019-06-26T07:10:20.051Z,28.30
2019-06-26T07:10:56.068Z,28.33
2019-06-26T07:11:33.554Z,28.48
2019-06-26T07:12:10.474Z,28.53
2019-06-26T07:12:46.753Z,28.53
2019-06-26T07:13:23.760Z,28.41
2019-06-26T07:14:00.668Z,28.42
2019-06-26T07:14:36.953Z,28.40
2019-06-26T07:15:16.200Z,28.39
2019-06-26T07:15:52.852Z,28.33
2019-06-26T07:16:28.929Z,28.39
2019-06-26T07:17:19.425Z,28.41
2019-06-26T07:17:43.915Z,28.44
2019-06-26T07:18:20.296Z,28.57
2019-06-26T07:18:56.970Z,28.65
2019-06-26T07:19:33.616Z,28.67
2019-06-26T07:20:11.203Z,28.70
2019-06-26T07:20:47.746Z,28.64
2019-06-26T07:21:24.893Z,28.53
2019-06-26T07:22:00.940Z,28.51
2019-06-26T07:22:37.852Z,28.68
2019-06-26T07:23:14.581Z,28.71
2019-06-26T07:23:51.040Z,28.70
2019-06-26T07:24:28.051Z,28.59
2019-06-26T07:25:05.040Z,28.57
2019-06-26T07:25:41.360Z,28.56
2019-06-26T07:26:17.970Z,28.64
2019-06-26T07:26:54.601Z,28.65
2019-06-26T07:27:30.638Z,28.53
2019-06-26T07:28:07.490Z,28.62
2019-06-26T07:28:44.483Z,28.56
2019-06-26T07:29:20.807Z,28.51
2019-06-26T07:29:57.414Z,28.58
2019-06-26T07:30:34.441Z,28.73
2019-06-26T07:31:10.859Z,28.81
2019-06-26T07:31:47.776Z,28.73
2019-06-26T07:32:25.043Z,28.64
2019-06-26T07:33:01.513Z,28.62
2019-06-26T07:33:38.436Z,28.65
2019-06-26T07:34:15.030Z,28.67
2019-06-26T07:34:51.412Z,28.77
2019-06-26T07:35:28.106Z,28.74
2019-06-26T07:36:04.721Z,28.92
2019-06-26T07:36:41.160Z,29.04
2019-06-26T07:37:17.878Z,29.06
2019-06-26T07:37:54.807Z,29.16
2019-06-26T07:38:31.160Z,29.29
2019-06-26T07:39:08.301Z,29.36
2019-06-26T07:39:44.924Z,29.43
2019-06-26T07:40:21.066Z,29.45
2019-06-26T07:40:57.673Z,29.50
2019-06-26T07:41:34.278Z,29.42
2019-06-26T07:42:10.302Z,29.44
2019-06-26T07:42:47.091Z,29.37
2019-06-26T07:43:24.059Z,29.30
2019-06-26T07:44:00.047Z,29.30
2019-06-26T07:44:36.979Z,29.37
2019-06-26T07:45:13.697Z,29.35
2019-06-26T07:45:49.700Z,29.49
2019-06-26T07:46:26.739Z,29.44
2019-06-26T07:47:03.356Z,29.54
2019-06-26T07:47:43.790Z,29.43
2019-06-26T07:48:18.606Z,29.32
2019-06-26T07:48:57.573Z,29.34
2019-06-26T07:49:33.504Z,29.29
2019-06-26T07:50:10.979Z,29.26
2019-06-26T07:50:47.600Z,29.37
2019-06-26T07:51:23.723Z,29.35
2019-06-26T07:52:00.420Z,29.27
2019-06-26T07:52:37.054Z,29.29
2019-06-26T07:53:13.203Z,29.19
2019-06-26T07:53:49.783Z,29.14